Terminal Aerodrome Forecast
Issued by NWS

Home | Current Version | Previous Version | Text Only | Print | Product List | Glossary On
Versions: 1 2 3 4 5 6 7 8 9 10 11 12 13 14 15 16 17 18 19 20 21 22 23 24 25 26 27 28 29 30 31 32 33 34 35 36
000
FTAK31 PAFG 191742
TAFAFA
TAF
PAFA 191742Z 1918/2024 20005KT 2SM -RA BR BKN008 OVC015
     FM191900 23004KT 6SM -RA BR SCT008 BKN012 OVC025
     FM192100 25006KT P6SM -SHRA BKN015 OVC025
     FM192300 25006KT P6SM VCSH SCT015 OVC025
     FM201000 02003KT 2SM BR SCT003 BKN050=

USA.gov is the U.S. government's official web portal to all federal, state and local government web resources and services.